Jamestown, Rhode Island
Current Conditions -  °F | °C
As of 7:53 AM on Wednesday 22 Oct 2014 (Local Time) from KUUU Reporting Station
Overcast Overcast  
Wind Chill: 54°   Ceiling: 400
Heat Index: 54°   Visibility: 9mi
Dew Point: 51°   Wind: 14mph
Humidity: 90%   Direction: 10°N
Pressure: 29.93"   Gusts: NA
Location:  41.5°N, 71.37°W
Report Text: KUUU 221153Z AUTO 01012KT 9SM OVC004 12/11 A2993 RMK AO2 SLP133 T01220106 10144 20122 58002
Loading
Personal Weather Stations






























Interactive Weather Map
Tropical Storm Tracking
New forecast layout! Learn more

10-Day Weather Forecast

Advertisements
Track Severe Weather on mobile